Date,TemperatureHighF,TemperatureAvgF,TemperatureLowF,DewpointHighF,DewpointAvgF,DewpointLowF,HumidityHigh,HumidityAvg,HumidityLow,PressureMaxIn,PressureMinIn,WindSpeedMaxMPH,WindSpeedAvgMPH,GustSpeedMaxMPH,PrecipitationSumIn
2013-6-1,90,80,72,77,73,71,98,82,60,30.03,29.92,11,3,15,1.90
2013-6-2,88,80,73,77,74,72,98,85,66,29.97,29.87,11,2,14,0.01
2013-6-3,87,79,74,76,74,73,97,85,69,29.98,29.88,15,2,16,0.00
2013-6-4,86,80,76,75,74,71,94,81,63,29.99,29.91,15,2,17,0.02
2013-6-5,86,79,74,76,73,71,93,82,65,29.98,29.86,16,2,16,0.10
2013-6-6,81,76,73,76,73,71,98,90,77,29.87,29.62,25,6,30,2.81
2013-6-7,85,79,72,75,73,70,97,82,69,29.94,29.75,12,3,18,0.00
2013-6-8,87,79,73,77,74,71,97,86,67,30.08,29.94,12,2,17,1.02
2013-6-9,91,79,73,77,74,71,98,85,58,30.08,29.99,10,2,12,0.07
2013-6-10,89,82,76,78,75,73,93,80,64,30.07,29.99,8,1,11,0.00
2013-6-11,93,80,75,81,76,72,97,86,53,30.07,29.99,7,1,10,0.82
2013-6-12,92,82,73,80,75,72,98,81,59,30.06,29.98,9,1,14,0.45
2013-6-13,89,82,74,77,74,71,98,80,58,30.03,29.89,9,2,13,0.00
2013-6-14,87,81,76,76,74,72,90,80,64,29.94,29.86,15,3,15,0.00
2013-6-15,89,82,78,78,76,73,90,81,66,30.04,29.90,9,2,13,0.00
2013-6-16,91,83,79,79,77,75,90,81,64,30.06,29.98,11,2,15,0.00
2013-6-17,91,84,78,78,76,73,93,77,61,30.05,29.96,11,2,14,0.00
2013-6-18,91,83,75,77,76,74,96,80,62,30.03,29.94,11,2,13,0.00
2013-6-19,93,84,78,78,76,75,92,79,57,30.01,29.94,9,1,12,0.00
2013-6-20,92,82,74,78,74,69,96,79,54,30.08,29.99,8,1,14,0.22
2013-6-21,89,79,74,77,73,71,94,83,66,30.09,30.01,6,1,15,0.10
2013-6-22,90,82,75,78,73,70,91,76,54,30.10,30.02,14,2,17,0.02
2013-6-23,94,82,72,77,74,69,96,79,46,30.11,30.03,11,2,13,0.21
2013-6-24,93,83,75,77,75,71,96,77,50,30.16,30.03,9,2,12,1.04
2013-6-25,94,83,73,77,74,70,98,79,50,30.14,29.99,12,1,17,1.07
2013-6-26,91,80,73,79,75,71,98,87,63,30.06,29.97,16,2,23,1.80
2013-6-27,91,81,72,78,75,71,98,82,60,30.03,29.92,9,1,13,0.00
2013-6-28,89,82,75,79,76,74,96,82,67,29.96,29.82,14,2,19,0.00
2013-6-29,83,79,74,78,75,71,96,88,78,29.87,29.78,20,2,26,0.47
2013-6-30,87,81,75,79,76,73,95,84,70,29.85,29.78,14,3,22,0.28